CheckWX is a tool to help pilots better visualize weather data.  It is not intended as a substitute for an official pre-flight weather briefing.

17:30:18 UTC

CYSC METAR
Sherbrooke Airport
Sherbrooke, Canada
Current

8 mins ago

CYSC 241722Z AUTO 28014G20KT 9SM -RA -UP FEW025 BKN029 BKN038 01/M05 A2992 RMK SLP146
Observed
Mar-24 @ 17:22 UTC
Wind
  • 280° at 14 KTS
  • Gusting to 20 KTS
Visibility
9 SM
Flight Rules
MVFR
Conditions
Light Rain, Unknown precipitation
Cloud Levels
  • Few at 2,500' AGL
  • Broken at 2,900' AGL
  • Broken at 3,800' AGL
Temperature
C / 34°F
Dewpoint
-5°C / 23°F
Humidity
65%
Altimeter
29.92" Hg
Pressure
1014.6 hPa
Previous

30 mins ago

CYSC 241700Z AUTO 27013G20KT 9SM FEW031 01/M04 A2992 RMK SLP146
Observed
Mar-24 @ 17:00 UTC
Wind
  • 270° at 13 KTS
  • Gusting to 20 KTS
Visibility
9 SM
Flight Rules
VFR
Cloud Levels
  • Few at 3,100' AGL
Temperature
C / 34°F
Dewpoint
-4°C / 25°F
Humidity
70%
Altimeter
29.92" Hg
Pressure
1014.6 hPa
Previous

2 hours ago

CYSC 241600Z AUTO 26016G21KT 9SM FEW033 SCT250 02/M05 A2991 RMK SLP143
Observed
Mar-24 @ 16:00 UTC
Wind
  • 260° at 16 KTS
  • Gusting to 21 KTS
Visibility
9 SM
Flight Rules
VFR
Cloud Levels
  • Few at 3,300' AGL
  • Scattered at 25,000' AGL
Temperature
C / 36°F
Dewpoint
-5°C / 23°F
Humidity
60%
Altimeter
29.91" Hg
Pressure
1014.3 hPa